Time;durP1;ratioP1;P1;durP2;ratioP2;P2;SDS_P1;SDS_P2;PMS_P1;PMS_P2;Temp;Humidity;BMP_temperature;BMP_pressure;BME280_temperature;BME280_humidity;BME280_pressure;Samples;Min_cycle;Max_cycle;Signal;HPM_P1;HPM_P2
2022/04/26 03:37:50;;;;;;;0.88;0.88;;;11.20;99.90;;;11.59;nan;100240.50;4972633;28;24417;-67
2022/04/26 03:40:17;;;;;;;0.60;0.60;;;11.20;99.90;;;11.61;nan;100243.84;4972886;28;24453;-67
2022/04/26 03:42:44;;;;;;;0.50;0.50;;;11.20;99.90;;;11.59;nan;100243.13;4971963;28;24449;-67
2022/04/26 03:45:12;;;;;;;0.40;0.30;;;11.20;99.90;;;11.62;nan;100242.88;4970183;28;24675;-67
2022/04/26 03:47:39;;;;;;;3.05;1.38;;;11.20;99.90;;;11.62;nan;100240.28;4971921;28;24429;-66
2022/04/26 03:50:09;;;;;;;0.60;0.60;;;11.30;99.90;;;11.61;nan;100236.81;4960298;28;24456;-67
2022/04/26 03:52:38;;;;;;;0.40;0.40;;;11.20;99.90;;;11.52;nan;100234.97;4969219;28;24442;-66
2022/04/26 03:55:06;;;;;;;0.70;0.70;;;11.20;99.90;;;11.51;nan;100240.31;4952798;28;24841;-67
2022/04/26 03:57:33;;;;;;;0.40;0.40;;;11.20;99.90;;;11.49;nan;100250.91;4954876;28;24441;-67
2022/04/26 04:00:00;;;;;;;0.40;0.30;;;11.10;99.90;;;11.49;nan;100252.69;4978384;28;24464;-67
2022/04/26 04:02:27;;;;;;;0.75;0.75;;;11.10;99.90;;;11.44;nan;100249.59;4989410;28;24507;-66
2022/04/26 04:04:54;;;;;;;0.80;0.73;;;11.10;99.90;;;11.47;nan;100251.97;4975587;28;24460;-66
2022/04/26 04:07:22;;;;;;;1.40;1.08;;;11.10;99.90;;;11.38;nan;100250.94;4975064;28;24473;-65
2022/04/26 04:09:49;;;;;;;0.80;0.80;;;11.10;99.90;;;11.43;nan;100251.41;4969013;28;24452;-66
2022/04/26 04:12:16;;;;;;;0.45;0.45;;;11.10;99.90;;;11.48;nan;100251.00;4970720;28;24445;-67
2022/04/26 04:14:43;;;;;;;0.45;0.45;;;11.10;99.90;;;11.51;nan;100258.59;4966780;28;24456;-66
2022/04/26 04:17:10;;;;;;;0.80;0.70;;;11.20;99.90;;;11.48;nan;100264.91;4990753;28;25053;-66
2022/04/26 04:19:37;;;;;;;2.10;1.40;;;11.10;99.90;;;11.47;nan;100273.72;4976807;28;24462;-66
2022/04/26 04:22:05;;;;;;;0.47;0.47;;;11.10;99.90;;;11.45;nan;100277.41;4971757;28;24442;-67
2022/04/26 04:24:32;;;;;;;1.00;0.60;;;11.20;99.90;;;11.49;nan;100277.03;4969776;28;24469;-67
2022/04/26 04:26:59;;;;;;;1.00;1.00;;;11.10;99.90;;;11.50;nan;100268.22;4972763;28;24421;-67
2022/04/26 04:29:26;;;;;;;0.40;0.30;;;11.10;99.90;;;11.51;nan;100271.66;4953522;28;24457;-66
2022/04/26 04:31:53;;;;;;;1.20;0.60;;;11.20;99.90;;;11.51;nan;100275.13;4966781;28;24441;-66
2022/04/26 04:34:20;;;;;;;0.50;0.50;;;11.20;99.90;;;11.52;nan;100274.16;4953942;28;24539;-67
2022/04/26 04:36:47;;;;;;;0.40;0.30;;;11.20;99.90;;;11.51;nan;100285.56;4970277;28;24889;-67
2022/04/26 04:39:19;;;;;;;1.30;1.10;;;11.20;99.90;;;11.53;nan;100285.44;4971096;28;24796;-67
2022/04/26 04:41:51;;;;;;;0.50;0.50;;;11.20;99.90;;;11.50;nan;100285.69;4968050;28;24444;-66
2022/04/26 04:44:18;;;;;;;0.40;0.40;;;11.20;99.90;;;11.46;nan;100287.72;4970863;28;24460;-67
2022/04/26 04:46:46;;;;;;;1.20;1.10;;;11.20;99.90;;;11.45;nan;100278.25;4968482;28;24795;-67
2022/04/26 04:49:13;;;;;;;0.77;0.77;;;11.20;99.90;;;11.43;nan;100287.97;4969025;28;24441;-66
2022/04/26 04:51:40;;;;;;;0.95;0.95;;;11.20;99.90;;;11.41;nan;100295.13;4969979;28;24437;-67
2022/04/26 04:54:07;;;;;;;0.40;0.30;;;11.10;99.90;;;11.41;nan;100297.72;4969607;28;24450;-67
2022/04/26 04:56:34;;;;;;;1.20;0.90;;;11.10;99.90;;;11.43;nan;100303.66;4969544;28;24437;-66
2022/04/26 04:59:01;;;;;;;0.40;0.38;;;11.10;99.90;;;11.50;nan;100307.41;4958081;28;24817;-67
2022/04/26 05:01:28;;;;;;;0.40;0.32;;;11.20;99.90;;;11.53;nan;100299.34;4965633;28;24465;-66
2022/04/26 05:03:55;;;;;;;0.80;0.80;;;11.20;99.90;;;11.52;nan;100302.88;4973289;28;25025;-66
2022/04/26 05:06:22;;;;;;;0.80;0.80;;;11.20;99.90;;;11.53;nan;100301.94;4970861;28;25014;-66
2022/04/26 05:08:49;;;;;;;1.50;1.40;;;11.20;99.90;;;11.55;nan;100304.44;4970747;28;24428;-66
2022/04/26 05:11:16;;;;;;;0.60;0.60;;;11.20;99.90;;;11.58;nan;100312.03;4969762;28;24496;-66
2022/04/26 05:13:43;;;;;;;0.40;0.40;;;11.30;99.90;;;11.58;nan;100298.97;4970375;28;24987;-66
2022/04/26 05:16:10;;;;;;;1.92;1.13;;;11.30;99.90;;;11.64;nan;100307.16;4971333;28;24879;-66
2022/04/26 05:18:37;;;;;;;0.40;0.30;;;11.30;99.90;;;11.68;nan;100302.50;4970776;28;24461;-66
2022/04/26 05:21:09;;;;;;;0.50;0.50;;;11.30;99.90;;;11.68;nan;100313.81;4967754;28;24456;-66
2022/04/26 05:26:22;;;;;;;3.10;0.70;;;11.40;99.90;;;11.73;nan;100316.06;4963371;28;24452;-66
2022/04/26 05:28:49;;;;;;;0.60;0.60;;;11.40;99.90;;;11.71;nan;100317.13;4971191;28;24441;-66
2022/04/26 05:31:16;;;;;;;1.00;0.90;;;11.40;99.90;;;11.73;nan;100317.81;4966304;28;24924;-67
2022/04/26 05:33:43;;;;;;;0.50;0.50;;;11.40;99.90;;;11.74;nan;100316.84;4963397;28;24465;-66
2022/04/26 05:36:10;;;;;;;0.60;0.60;;;11.40;99.90;;;11.74;nan;100316.84;4966867;28;24449;-66
2022/04/26 05:38:37;;;;;;;0.60;0.60;;;11.40;99.90;;;11.71;nan;100312.75;4970898;28;24851;-68
2022/04/26 05:41:04;;;;;;;0.40;0.40;;;11.40;99.90;;;11.71;nan;100317.97;4971516;28;24497;-66
2022/04/26 05:43:34;;;;;;;0.82;0.82;;;11.40;99.90;;;11.74;nan;100319.47;4969720;28;24476;-66
2022/04/26 05:46:01;;;;;;;0.50;0.50;;;11.40;99.90;;;11.74;nan;100317.69;4968502;28;24456;-67
2022/04/26 05:48:28;;;;;;;0.50;0.50;;;11.50;99.90;;;11.76;nan;100323.63;4969308;28;24998;-66
2022/04/26 05:50:55;;;;;;;0.60;0.60;;;11.40;99.90;;;11.74;nan;100325.53;4969046;28;24450;-67
2022/04/26 05:53:22;;;;;;;0.40;0.30;;;11.50;99.90;;;11.78;nan;100319.09;4966652;28;24445;-65
2022/04/26 05:55:49;;;;;;;0.40;0.40;;;11.40;99.90;;;11.78;nan;100320.88;4968039;28;24947;-66
2022/04/26 05:58:16;;;;;;;0.85;0.55;;;11.40;99.90;;;11.78;nan;100319.09;4968754;28;24476;-67
2022/04/26 06:00:43;;;;;;;0.43;0.38;;;11.50;99.90;;;11.73;nan;100321.28;4967137;28;24452;-66
2022/04/26 06:03:13;;;;;;;0.70;0.70;;;11.40;99.90;;;11.82;nan;100315.28;4985771;28;25018;-65
2022/04/26 06:05:40;;;;;;;0.40;0.30;;;11.50;99.90;;;11.81;nan;100313.63;4959419;28;24441;-67
2022/04/26 06:08:08;;;;;;;0.50;0.50;;;11.50;99.90;;;11.94;nan;100316.06;4969825;28;24438;-67
2022/04/26 06:10:42;;;;;;;0.80;0.80;;;11.70;99.90;;;11.99;nan;100309.50;4970557;28;24453;-67
2022/04/26 06:13:09;;;;;;;0.60;0.60;;;11.80;99.90;;;12.18;nan;100316.66;4980791;28;25005;-66
2022/04/26 06:15:36;;;;;;;0.60;0.60;;;11.90;99.90;;;12.24;nan;100316.97;4979432;28;24497;-66
2022/04/26 06:18:03;;;;;;;1.30;0.60;;;12.10;99.90;;;12.37;nan;100324.63;4967662;28;25030;-66
2022/04/26 06:20:30;;;;;;;0.50;0.50;;;12.30;99.90;;;12.52;nan;100333.81;4976849;28;24449;-67
2022/04/26 06:22:57;;;;;;;0.68;0.68;;;12.40;99.90;;;12.70;nan;100339.25;4988962;28;24502;-66
2022/04/26 06:25:25;;;;;;;0.40;0.40;;;12.50;99.90;;;12.84;nan;100339.72;4987357;28;24429;-66
2022/04/26 06:27:52;;;;;;;0.40;0.40;;;12.70;99.90;;;12.92;nan;100339.06;4987897;28;24432;-66
2022/04/26 06:30:23;;;;;;;0.65;0.65;;;12.80;99.90;;;13.11;nan;100340.00;4969034;28;24466;-66
2022/04/26 06:32:50;;;;;;;0.30;0.30;;;13.10;99.90;;;13.33;nan;100344.19;4970543;28;20212;-66
2022/04/26 06:35:17;;;;;;;0.30;0.20;;;13.40;99.90;;;13.63;nan;100341.47;4969390;28;20671;-66
2022/04/26 06:37:43;;;;;;;0.30;0.30;;;13.80;99.90;;;14.21;nan;100344.09;4970800;28;20648;-66
2022/04/26 06:40:11;;;;;;;0.30;0.20;;;14.50;99.90;;;14.58;nan;100347.66;4970997;28;20627;-67
2022/04/26 06:42:38;;;;;;;0.30;0.20;;;15.10;99.90;;;14.44;nan;100345.44;4971229;28;20635;-66
2022/04/26 06:45:05;;;;;;;0.30;0.30;;;15.00;99.90;;;14.27;nan;100348.78;4968243;28;20666;-66
2022/04/26 06:47:32;;;;;;;0.30;0.30;;;14.50;99.90;;;13.94;nan;100343.03;4971224;28;20614;-67
2022/04/26 06:49:59;;;;;;;0.30;0.30;;;14.10;99.90;;;13.44;nan;100341.44;4970411;28;20750;-67
2022/04/26 06:52:28;;;;;;;0.30;0.30;;;13.50;99.90;;;13.16;nan;100344.84;4979413;28;20642;-67
2022/04/26 06:54:55;;;;;;;0.30;0.30;;;13.10;99.90;;;13.51;nan;100342.56;4973960;28;20655;-67
2022/04/26 06:57:22;;;;;;;0.30;0.20;;;13.30;99.90;;;15.25;nan;100350.81;4976250;28;20623;-66
2022/04/26 06:59:49;;;;;;;0.30;0.30;;;15.90;99.90;;;17.23;nan;100351.09;4974386;28;20638;-66
2022/04/26 07:02:16;;;;;;;0.30;0.30;;;18.70;99.90;;;18.46;nan;100353.56;4973055;28;20643;-66
2022/04/26 07:04:44;;;;;;;0.30;0.30;;;20.20;99.70;;;18.73;nan;100351.53;4973108;28;20688;-64
2022/04/26 07:07:11;;;;;;;0.30;0.30;;;20.00;98.20;;;18.63;nan;100350.91;4989177;28;20617;-66
2022/04/26 07:09:38;;;;;;;0.30;0.30;;;19.60;98.20;;;17.89;nan;100349.28;4992000;28;20622;-66
2022/04/26 07:12:07;;;;;;;0.30;0.30;;;19.10;98.30;;;17.60;nan;100348.91;4956562;28;21002;-66
2022/04/26 07:14:34;;;;;;;0.30;0.30;;;18.40;99.90;;;17.52;nan;100362.91;5009305;23;20693;-73
2022/04/26 07:17:02;;;;;;;0.30;0.30;;;18.00;99.90;;;17.08;nan;100365.84;5002452;28;20630;-72
2022/04/26 07:19:30;;;;;;;0.30;0.30;;;17.50;99.90;;;17.60;nan;100362.94;4982723;28;20624;-73
2022/04/26 07:21:57;;;;;;;0.30;0.30;;;18.10;99.90;;;17.81;nan;100363.28;4972702;28;20685;-70
2022/04/26 07:24:32;;;;;;;0.30;0.30;;;18.40;99.90;;;17.03;nan;100366.31;5010566;28;20691;-73
2022/04/26 07:27:00;;;;;;;0.30;0.30;;;17.80;99.90;;;16.65;nan;100356.25;5014355;28;20633;-72
2022/04/26 07:29:28;;;;;;;0.30;0.30;;;17.20;99.90;;;16.44;nan;100364.44;5005878;28;20638;-72
2022/04/26 07:31:55;;;;;;;0.30;0.30;;;16.80;99.90;;;16.33;nan;100364.72;4992621;28;20623;-72
2022/04/26 07:34:25;;;;;;;0.30;0.30;;;16.60;99.90;;;16.37;nan;100376.59;4996172;28;20661;-72
2022/04/26 07:36:54;;;;;;;0.80;0.70;;;16.60;99.90;;;16.58;nan;100369.22;4991169;28;20618;-73
2022/04/26 07:39:21;;;;;;;0.80;0.80;;;16.90;99.90;;;16.62;nan;100375.81;4992399;28;20688;-72
2022/04/26 07:41:48;;;;;;;0.30;0.30;;;16.90;99.90;;;16.85;nan;100376.94;4993801;28;20622;-72
2022/04/26 07:44:17;;;;;;;0.30;0.30;;;17.10;99.90;;;16.44;nan;100374.19;4992020;28;20674;-72
2022/04/26 07:46:47;;;;;;;0.30;0.30;;;17.10;99.90;;;16.27;nan;100381.09;4979067;28;20626;-69
2022/04/26 07:49:16;;;;;;;0.30;0.30;;;16.70;99.90;;;16.22;nan;100386.03;4993520;28;20629;-72
2022/04/26 07:51:43;;;;;;;0.30;0.27;;;16.40;99.90;;;16.23;nan;100379.75;4981813;28;20635;-72
2022/04/26 07:54:11;;;;;;;0.30;0.30;;;16.20;99.90;;;16.12;nan;100377.38;4973616;28;21033;-72
2022/04/26 07:56:38;;;;;;;0.30;0.30;;;16.10;99.90;;;16.66;nan;100382.41;4973905;28;20623;-72
2022/04/26 07:59:05;;;;;;;0.30;0.30;;;16.70;99.90;;;17.87;nan;100375.00;4974375;28;21193;-72
2022/04/26 08:01:35;;;;;;;0.40;0.40;;;18.30;99.90;;;20.01;nan;100390.66;4977148;28;21014;-72
2022/04/26 08:04:02;;;;;;;0.30;0.30;;;20.80;97.70;;;21.71;nan;100386.22;4971994;28;20674;-73
2022/04/26 08:06:29;;;;;;;0.30;0.30;;;22.90;90.70;;;22.62;nan;100384.47;4975600;28;21018;-74
2022/04/26 08:08:58;;;;;;;0.30;0.30;;;24.00;80.10;;;23.13;nan;100383.13;4985375;28;21195;-72
2022/04/26 08:11:28;;;;;;;0.30;0.30;;;24.40;77.10;;;23.20;nan;100387.66;4989241;28;21015;-69
2022/04/26 08:13:56;;;;;;;0.30;0.30;;;24.90;71.70;;;24.31;nan;100394.19;4980256;28;21019;-72
2022/04/26 08:16:24;;;;;;;0.43;0.43;;;25.50;70.40;;;24.22;nan;100391.91;4974488;28;20654;-73
2022/04/26 08:18:51;;;;;;;0.30;0.30;;;26.00;65.20;;;24.97;nan;100402.16;4971651;28;20626;-72
2022/04/26 08:21:18;;;;;;;0.30;0.30;;;26.60;62.30;;;24.78;nan;100398.50;4980431;28;21132;-73
2022/04/26 08:29:19;;;;;;;0.30;0.30;;;23.90;63.10;;;22.27;nan;100407.47;4984595;28;21255;-72
2022/04/26 08:31:46;;;;;;;0.30;0.30;;;23.20;67.20;;;21.92;nan;100404.84;4977482;28;20990;-72
2022/04/26 08:34:13;;;;;;;0.30;0.30;;;23.40;66.20;;;22.84;nan;100415.31;4971355;28;21282;-73
2022/04/26 08:36:40;;;;;;;0.30;0.30;;;24.40;64.20;;;22.93;nan;100421.31;4982463;28;20883;-73
2022/04/26 08:39:07;;;;;;;0.30;0.30;;;24.20;64.80;;;22.23;nan;100421.34;4991846;28;20594;-73
2022/04/26 08:41:34;;;;;;;1.13;1.03;;;23.50;65.60;;;20.85;nan;100418.75;4982579;28;20643;-72
2022/04/26 08:44:09;;;;;;;0.30;0.30;;;22.00;69.50;;;19.27;nan;100416.84;4970754;28;20685;-73
2022/04/26 08:52:09;;;;;;;0.30;0.30;;;24.70;65.90;;;23.70;nan;100427.25;4977863;28;20638;-73
2022/04/26 08:54:36;;;;;;;0.30;0.30;;;26.00;59.80;;;22.48;nan;100427.88;4993366;28;20690;-72
2022/04/26 08:57:08;;;;;;;0.30;0.30;;;24.50;61.00;;;20.89;nan;100426.16;4972227;28;20639;-72
2022/04/26 08:59:38;;;;;;;0.30;0.30;;;22.50;64.20;;;20.22;nan;100415.69;4973395;28;20625;-72
2022/04/26 09:02:20;;;;;;;0.30;0.30;;;21.30;67.80;;;20.38;nan;100420.88;4977433;28;20650;-72
2022/04/26 09:04:53;;;;;;;0.30;0.30;;;20.90;70.90;;;21.25;nan;100420.97;4989291;28;21239;-73
2022/04/26 09:07:32;;;;;;;0.30;0.30;;;22.60;67.80;;;22.34;nan;100418.13;4991368;28;20637;-73
2022/04/26 09:10:18;;;;;;;0.30;0.30;;;23.80;64.90;;;23.78;nan;100425.22;4984229;28;20631;-73
2022/04/26 09:13:08;;;;;;;0.53;0.53;;;26.20;60.20;;;23.34;nan;100429.34;4971420;28;20635;-72
2022/04/26 09:15:54;;;;;;;0.30;0.30;;;25.50;58.40;;;22.37;nan;100428.41;4971340;28;20658;-73
2022/04/26 09:18:30;;;;;;;0.30;0.30;;;24.00;61.80;;;22.62;nan;100427.00;4976949;28;21091;-72
2022/04/26 09:21:04;;;;;;;0.30;0.30;;;24.40;61.20;;;21.57;nan;100441.81;4970740;28;20615;-72
2022/04/26 09:23:32;;;;;;;0.30;0.30;;;23.20;62.20;;;22.37;nan;100434.56;4972529;28;21187;-72
2022/04/26 09:26:08;;;;;;;0.30;0.30;;;24.30;61.40;;;22.96;nan;100439.53;4980770;28;20677;-72
2022/04/26 09:28:38;;;;;;;0.30;0.30;;;24.20;61.20;;;21.83;nan;100443.19;4973058;28;20623;-72
2022/04/26 09:31:20;;;;;;;0.30;0.30;;;23.20;63.10;;;21.13;nan;100449.00;4983717;28;20728;-72
2022/04/26 09:33:57;;;;;;;0.30;0.30;;;21.90;66.00;;;20.30;nan;100445.59;4981219;28;20642;-72
2022/04/26 09:36:28;;;;;;;0.30;0.30;;;20.90;68.60;;;18.85;nan;100456.75;4988460;28;20699;-72
2022/04/26 09:39:00;;;;;;;0.30;0.30;;;19.60;72.30;;;17.55;nan;100460.19;4970328;28;20619;-73
2022/04/26 09:41:29;;;;;;;0.40;0.40;;;18.10;77.60;;;16.94;nan;100460.34;4976818;28;20643;-73
2022/04/26 09:44:03;;;;;;;0.30;0.30;;;17.10;82.20;;;16.44;nan;100458.44;4969240;28;21239;-72
2022/04/26 09:46:52;;;;;;;0.30;0.30;;;16.30;90.50;;;16.27;nan;100460.09;4969604;28;21219;-71
2022/04/26 09:49:22;;;;;;;0.30;0.30;;;16.10;94.80;;;16.30;nan;100465.06;4972418;28;20623;-73
2022/04/26 09:51:54;;;;;;;0.30;0.30;;;16.20;96.50;;;16.17;nan;100464.59;4972018;28;20626;-72
2022/04/26 09:54:22;;;;;;;0.30;0.30;;;16.20;98.20;;;15.77;nan;100461.56;4970422;28;20701;-72
2022/04/26 09:56:49;;;;;;;0.30;0.30;;;15.80;99.30;;;15.69;nan;100453.56;4982134;28;20638;-72
2022/04/26 09:59:29;;;;;;;0.40;0.40;;;15.60;99.90;;;15.89;nan;100457.72;4982328;28;20626;-72
2022/04/26 10:02:01;;;;;;;0.30;0.30;;;15.70;99.90;;;16.78;nan;100462.84;4972009;28;20621;-73
2022/04/26 10:04:30;;;;;;;0.30;0.30;;;17.10;99.90;;;18.00;nan;100472.19;4989720;28;21092;-72
2022/04/26 10:07:07;;;;;;;0.30;0.30;;;19.10;95.10;;;17.74;nan;100477.56;4982476;28;20638;-72
2022/04/26 10:09:35;;;;;;;0.30;0.30;;;18.60;93.50;;;17.04;nan;100479.50;4970547;28;20634;-72
2022/04/26 10:12:03;;;;;;;0.30;0.30;;;17.50;94.90;;;15.86;nan;100476.47;4969083;28;20635;-72
2022/04/26 10:14:32;;;;;;;0.30;0.30;;;16.20;97.40;;;15.79;nan;100470.13;4969694;28;21076;-72
2022/04/26 10:16:59;;;;;;;0.50;0.50;;;15.80;99.70;;;15.42;nan;100481.47;4971290;28;21102;-72
2022/04/26 10:19:42;;;;;;;0.30;0.30;;;15.40;99.90;;;15.32;nan;100482.50;4976533;28;20638;-72
2022/04/26 10:22:11;;;;;;;0.30;0.30;;;15.20;99.90;;;15.01;nan;100484.53;4976561;28;20636;-72
2022/04/26 10:24:42;;;;;;;0.30;0.30;;;14.90;99.90;;;14.85;nan;100494.78;4978019;28;20678;-72
2022/04/26 10:27:23;;;;;;;0.30;0.30;;;14.60;99.90;;;14.67;nan;100491.22;4972782;28;20662;-72
2022/04/26 10:29:51;;;;;;;0.30;0.30;;;14.50;99.90;;;14.48;nan;100491.25;4971662;28;20619;-69
2022/04/26 10:32:38;;;;;;;0.63;0.63;;;14.40;99.90;;;14.70;nan;100489.13;4978023;28;20622;-72
2022/04/26 10:35:29;;;;;;;0.30;0.30;;;14.50;99.90;;;14.77;nan;100503.38;4983948;28;20677;-72
2022/04/26 10:38:17;;;;;;;0.30;0.30;;;14.50;99.90;;;-141.50;100.00;62695.63;4964123;28;20654;-72
2022/04/26 10:41:08;;;;;;;0.30;0.30;;;14.70;99.90;;;-141.50;100.00;62695.63;4975366;28;20630;-72
2022/04/26 10:43:35;;;;;;;0.30;0.30;;;14.60;99.90;;;-141.50;100.00;62695.63;4980614;28;20687;-72
2022/04/26 10:46:16;;;;;;;0.30;0.30;;;14.70;99.90;;;-141.50;100.00;62695.63;4970881;28;20990;-72
2022/04/26 10:48:43;;;;;;;0.30;0.30;;;14.50;99.90;;;-141.50;100.00;62695.63;4978255;28;20739;-72
2022/04/26 10:51:35;;;;;;;0.30;0.30;;;14.30;99.90;;;-141.50;100.00;62695.63;4990210;28;20718;-73
2022/04/26 10:54:03;;;;;;;0.30;0.30;;;14.10;99.90;;;-141.50;100.00;62695.63;4987969;28;21329;-72
2022/04/26 10:56:31;;;;;;;0.30;0.30;;;13.90;99.90;;;-141.50;100.00;62695.63;4991714;28;20615;-72
2022/04/26 10:58:58;;;;;;;0.30;0.20;;;13.80;99.90;;;-141.50;100.00;62695.63;4989718;28;20606;-72
2022/04/26 11:01:29;;;;;;;0.30;0.30;;;13.70;99.90;;;-141.50;100.00;62695.63;4973297;28;20619;-73
2022/04/26 11:03:58;;;;;;;0.30;0.30;;;13.70;99.90;;;-141.50;100.00;62695.63;4982163;28;20638;-72
2022/04/26 11:06:37;;;;;;;0.30;0.30;;;13.80;99.90;;;-141.50;100.00;62695.63;4973568;28;20606;-72
2022/04/26 11:09:07;;;;;;;0.30;0.30;;;14.00;99.90;;;-141.50;100.00;62695.63;4970565;28;21113;-73
2022/04/26 11:11:47;;;;;;;0.30;0.30;;;14.10;99.90;;;-141.50;100.00;62695.63;4980771;28;20642;-72
2022/04/26 11:14:22;;;;;;;0.30;0.20;;;14.20;99.90;;;-141.50;100.00;62695.63;4970243;28;20665;-72
2022/04/26 11:17:06;;;;;;;0.50;0.50;;;14.40;99.90;;;-141.50;100.00;62695.63;4971712;28;20641;-72
2022/04/26 11:19:36;;;;;;;0.30;0.27;;;14.30;99.90;;;-141.50;100.00;62695.63;4969877;28;20674;-72
2022/04/26 11:22:10;;;;;;;0.30;0.20;;;14.20;99.90;;;-141.50;100.00;62695.63;4970735;28;20676;-74
2022/04/26 11:30:10;;;;;;;0.30;0.20;;;14.70;99.90;;;-141.50;100.00;62695.63;4970747;28;20598;-73
2022/04/26 11:32:43;;;;;;;0.30;0.20;;;15.00;99.90;;;-141.50;100.00;62695.63;4973473;28;21074;-70
2022/04/26 11:35:11;;;;;;;0.60;0.60;;;15.30;99.90;;;-141.50;100.00;62695.63;4980857;28;20677;-72
2022/04/26 11:37:49;;;;;;;0.30;0.20;;;15.70;99.90;;;-141.50;100.00;62695.63;4985695;28;20636;-71
2022/04/26 11:40:32;;;;;;;0.30;0.30;;;16.10;99.90;;;-141.50;100.00;62695.63;4980616;28;20641;-70
2022/04/26 11:43:11;;;;;;;0.97;0.97;;;16.30;99.70;;;-141.50;100.00;62695.63;4984761;28;20654;-68
2022/04/26 11:45:41;;;;;;;0.40;0.40;;;16.60;98.60;;;-141.50;100.00;62695.63;4982564;28;20679;-70
2022/04/26 11:48:10;;;;;;;0.30;0.30;;;16.70;98.50;;;-141.50;100.00;62695.63;4987260;28;20629;-69
2022/04/26 11:50:39;;;;;;;0.30;0.30;;;16.50;97.50;;;-141.50;100.00;62695.63;4987095;28;20656;-69
2022/04/26 11:53:11;;;;;;;0.30;0.30;;;16.20;98.30;;;-141.50;100.00;62695.63;4986979;28;20671;-67
2022/04/26 11:55:57;;;;;;;0.30;0.30;;;15.70;99.10;;;-141.50;100.00;62695.63;4995375;28;21333;-71
2022/04/26 11:58:38;;;;;;;0.30;0.20;;;15.60;99.70;;;-141.50;100.00;62695.63;4987866;28;20680;-70
2022/04/26 12:01:16;;;;;;;0.33;0.33;;;15.40;99.90;;;-141.50;100.00;62695.63;4991938;28;21183;-71
2022/04/26 12:03:52;;;;;;;0.30;0.30;;;15.20;99.90;;;-141.50;100.00;62695.63;4971923;28;20685;-69
2022/04/26 12:06:27;;;;;;;0.30;0.30;;;14.90;99.90;;;-141.50;100.00;62695.63;4979032;28;21097;-70
2022/04/26 12:09:01;;;;;;;1.07;1.03;;;14.80;99.90;;;-141.50;100.00;62695.63;4985604;28;20606;-71
2022/04/26 12:11:36;;;;;;;0.30;0.20;;;14.80;99.90;;;-141.50;100.00;62695.63;4991317;28;21221;-70
2022/04/26 12:14:14;;;;;;;0.30;0.27;;;15.10;99.90;;;-141.50;100.00;62695.63;4977170;28;21058;-70
2022/04/26 12:16:42;;;;;;;0.30;0.30;;;15.20;99.90;;;-141.50;100.00;62695.63;4986679;28;20711;-69
2022/04/26 12:19:10;;;;;;;0.30;0.20;;;15.40;99.90;;;-141.50;100.00;62695.63;4982778;28;20739;-72
2022/04/26 12:22:00;;;;;;;0.30;0.30;;;15.60;99.90;;;-141.50;100.00;62695.63;4974796;28;20619;-69
2022/04/26 12:24:30;;;;;;;0.30;0.30;;;15.60;99.40;;;-141.50;100.00;62695.63;4983242;28;20705;-71
2022/04/26 12:27:04;;;;;;;0.30;0.30;;;15.20;99.70;;;-141.50;100.00;62695.63;4992577;28;20615;-71
2022/04/26 12:29:37;;;;;;;0.30;0.30;;;14.80;99.90;;;-141.50;100.00;62695.63;4992815;28;20638;-71
2022/04/26 12:32:15;;;;;;;0.30;0.20;;;14.60;99.00;;;-141.50;100.00;62695.63;4993752;28;20652;-72
2022/04/26 12:34:57;;;;;;;0.30;0.20;;;14.40;99.40;;;-141.50;100.00;62695.63;4994335;28;21083;-67
2022/04/26 12:37:27;;;;;;;0.30;0.30;;;14.40;99.90;;;-141.50;100.00;62695.63;4991935;28;20718;-69
2022/04/26 12:40:06;;;;;;;0.30;0.30;;;14.30;99.90;;;-141.50;100.00;62695.63;4994057;28;20623;-69
2022/04/26 12:42:38;;;;;;;0.30;0.30;;;14.10;99.90;;;13.72;nan;100597.63;5008718;28;21058;-69
2022/04/26 12:45:11;;;;;;;0.30;0.30;;;13.60;99.90;;;13.64;nan;100599.22;4992948;28;20662;-69
2022/04/26 12:50:28;;;;;;;0.30;0.30;;;13.70;99.90;;;14.14;nan;100592.28;4993217;28;20611;-69
2022/04/26 12:53:01;;;;;;;0.30;0.30;;;14.00;99.90;;;14.10;nan;100593.50;4993344;28;20650;-69
2022/04/26 12:55:39;;;;;;;0.30;0.20;;;14.00;99.90;;;14.20;nan;100596.97;4992276;28;20668;-67
2022/04/26 12:58:09;;;;;;;0.30;0.30;;;14.10;99.90;;;14.30;nan;100603.09;4998129;28;20622;-69
2022/04/26 13:00:40;;;;;;;0.30;0.27;;;14.10;99.90;;;13.82;nan;100603.72;4986777;28;20654;-68
2022/04/26 13:03:09;;;;;;;0.30;0.20;;;13.90;99.90;;;14.05;nan;100606.19;4982105;28;20611;-68
2022/04/26 13:05:46;;;;;;;0.30;0.20;;;13.90;99.90;;;14.06;nan;100607.81;5006140;28;21115;-69
2022/04/26 13:08:17;;;;;;;0.30;0.20;;;14.00;99.90;;;14.07;nan;100604.25;5011623;28;20620;-68
2022/04/26 13:10:45;;;;;;;0.30;0.30;;;14.00;99.90;;;14.27;nan;100619.09;5011729;28;20613;-69
2022/04/26 13:13:12;;;;;;;0.30;0.30;;;14.10;99.90;;;14.59;nan;100612.69;5011621;28;21031;-69
2022/04/26 13:15:44;;;;;;;0.30;0.30;;;14.50;99.90;;;14.75;nan;100605.13;5018253;23;20697;-64
2022/04/26 13:18:15;;;;;;;0.30;0.30;;;14.80;99.90;;;14.81;nan;100611.59;4998976;28;20646;-67
2022/04/26 13:20:44;;;;;;;0.30;0.30;;;15.00;99.90;;;14.84;nan;100606.09;5005374;28;20633;-67
2022/04/26 13:23:12;;;;;;;0.30;0.30;;;14.80;99.90;;;15.05;nan;100611.19;5010671;28;21031;-66
2022/04/26 13:25:41;;;;;;;0.30;0.30;;;15.10;99.90;;;15.28;nan;100605.50;4988005;28;20693;-67
2022/04/26 13:28:09;;;;;;;0.30;0.30;;;15.30;99.90;;;15.51;nan;100614.75;4990720;28;21188;-67
2022/04/26 13:30:36;;;;;;;0.30;0.30;;;15.50;99.90;;;15.48;nan;100615.03;4987598;28;20635;-67
2022/04/26 13:33:03;;;;;;;0.30;0.20;;;15.50;99.20;;;15.11;nan;100608.00;5000648;28;20629;-66
2022/04/26 13:35:31;;;;;;;0.30;0.20;;;15.10;98.60;;;14.66;nan;100610.34;4993520;28;20685;-68
2022/04/26 13:37:58;;;;;;;0.30;0.30;;;14.60;98.80;;;14.70;nan;100617.81;5009440;28;20625;-67
2022/04/26 13:40:26;;;;;;;0.30;0.20;;;14.50;99.60;;;14.51;nan;100617.78;5011511;28;20708;-67
2022/04/26 13:42:56;;;;;;;0.30;0.30;;;14.50;98.90;;;14.63;nan;100615.84;4990230;28;20688;-65
2022/04/26 13:45:24;;;;;;;0.70;0.70;;;14.50;98.70;;;14.70;nan;100606.47;4989466;28;20674;-66
2022/04/26 13:47:51;;;;;;;0.30;0.20;;;14.60;98.40;;;14.68;nan;100617.13;4990518;28;20634;-66
2022/04/26 13:50:19;;;;;;;0.30;0.30;;;14.70;98.20;;;14.71;nan;100618.66;4990054;28;20634;-65
2022/04/26 13:52:46;;;;;;;0.30;0.30;;;14.60;98.90;;;14.48;nan;100627.75;4989154;28;20641;-65
2022/04/26 13:55:17;;;;;;;0.30;0.20;;;14.30;99.60;;;14.56;nan;100620.03;5009234;28;20656;-66
2022/04/26 13:57:46;;;;;;;0.30;0.30;;;14.30;99.90;;;14.56;nan;100614.78;4995271;28;20639;-66
2022/04/26 14:00:18;;;;;;;0.30;0.30;;;14.40;99.90;;;14.61;nan;100623.03;4990158;28;20630;-67
2022/04/26 14:02:46;;;;;;;0.30;0.20;;;14.40;99.90;;;14.62;nan;100615.06;4986826;28;20646;-64
2022/04/26 14:05:13;;;;;;;0.30;0.20;;;14.40;99.90;;;14.78;nan;100617.13;4971955;28;20753;-67
2022/04/26 14:07:40;;;;;;;0.30;0.30;;;14.60;99.90;;;14.78;nan;100619.75;4990048;28;21195;-66
2022/04/26 14:10:08;;;;;;;0.30;0.30;;;14.60;99.90;;;14.58;nan;100618.09;4991953;28;20618;-67
2022/04/26 14:12:36;;;;;;;0.30;0.30;;;14.30;99.90;;;14.52;nan;100623.88;4990709;28;20969;-67
2022/04/26 14:23:29;;;;;;;0.30;0.30;;;14.20;99.90;;;14.68;nan;100618.91;4990075;28;20634;-66
2022/04/26 14:25:59;;;;;;;0.30;0.30;;;14.50;99.90;;;14.75;nan;100622.66;5005483;28;20689;-66
2022/04/26 14:28:26;;;;;;;0.30;0.20;;;14.60;99.90;;;14.57;nan;100621.66;5005753;28;20626;-67
2022/04/26 14:30:53;;;;;;;2.20;2.10;;;14.50;99.90;;;14.62;nan;100628.19;4989913;28;21192;-67
2022/04/26 14:33:20;;;;;;;0.30;0.23;;;14.30;99.90;;;14.64;nan;100617.53;4974526;28;20638;-67
2022/04/26 14:35:47;;;;;;;0.30;0.20;;;14.40;99.90;;;14.86;nan;100622.53;4990470;28;20650;-66
2022/04/26 14:38:14;;;;;;;0.30;0.20;;;14.60;99.90;;;14.57;nan;100634.78;4991509;28;20652;-66
2022/04/26 14:40:41;;;;;;;0.30;0.30;;;14.50;99.90;;;14.77;nan;100623.34;4990615;28;20638;-66